sensor_id;sensor_type;location;lat;lon;timestamp;temperature;humidity
19168;DHT22;9716;53.114;18.040;2023-04-24T00:02:16;14.50;99.90
19168;DHT22;9716;53.114;18.040;2023-04-24T00:04:46;14.60;99.90
19168;DHT22;9716;53.114;18.040;2023-04-24T00:07:17;14.50;99.90
19168;DHT22;9716;53.114;18.040;2023-04-24T00:09:47;14.60;99.90
19168;DHT22;9716;53.114;18.040;2023-04-24T00:12:15;14.50;99.90
19168;DHT22;9716;53.114;18.040;2023-04-24T00:14:43;14.50;99.90
19168;DHT22;9716;53.114;18.040;2023-04-24T00:17:12;14.50;99.90
19168;DHT22;9716;53.114;18.040;2023-04-24T00:19:40;14.50;99.90
19168;DHT22;9716;53.114;18.040;2023-04-24T00:22:09;14.50;99.90
19168;DHT22;9716;53.114;18.040;2023-04-24T00:24:39;14.40;99.90
19168;DHT22;9716;53.114;18.040;2023-04-24T00:27:07;14.40;99.90
19168;DHT22;9716;53.114;18.040;2023-04-24T00:29:36;14.40;99.90
19168;DHT22;9716;53.114;18.040;2023-04-24T00:32:04;14.40;99.90
19168;DHT22;9716;53.114;18.040;2023-04-24T00:34:33;14.40;99.90
19168;DHT22;9716;53.114;18.040;2023-04-24T00:37:02;14.40;99.90
19168;DHT22;9716;53.114;18.040;2023-04-24T00:39:30;14.40;99.90
19168;DHT22;9716;53.114;18.040;2023-04-24T00:42:00;14.40;99.90
19168;DHT22;9716;53.114;18.040;2023-04-24T00:44:29;14.40;99.90
19168;DHT22;9716;53.114;18.040;2023-04-24T00:46:58;14.40;99.90
19168;DHT22;9716;53.114;18.040;2023-04-24T00:49:27;14.30;99.90
19168;DHT22;9716;53.114;18.040;2023-04-24T00:51:55;14.30;99.90
19168;DHT22;9716;53.114;18.040;2023-04-24T00:54:26;14.30;99.90
19168;DHT22;9716;53.114;18.040;2023-04-24T00:56:54;14.30;99.90
19168;DHT22;9716;53.114;18.040;2023-04-24T00:59:25;14.30;99.90
19168;DHT22;9716;53.114;18.040;2023-04-24T01:01:54;14.30;99.90
19168;DHT22;9716;53.114;18.040;2023-04-24T01:04:22;14.20;99.90
19168;DHT22;9716;53.114;18.040;2023-04-24T01:06:51;14.20;99.90
19168;DHT22;9716;53.114;18.040;2023-04-24T01:09:21;14.20;99.90
19168;DHT22;9716;53.114;18.040;2023-04-24T01:11:51;14.20;99.90
19168;DHT22;9716;53.114;18.040;2023-04-24T01:14:20;14.10;99.90
19168;DHT22;9716;53.114;18.040;2023-04-24T01:16:50;14.20;99.90
19168;DHT22;9716;53.114;18.040;2023-04-24T01:19:19;14.10;99.90
19168;DHT22;9716;53.114;18.040;2023-04-24T01:21:51;14.10;99.90
19168;DHT22;9716;53.114;18.040;2023-04-24T01:24:22;14.10;99.90
19168;DHT22;9716;53.114;18.040;2023-04-24T01:26:51;14.20;99.90
19168;DHT22;9716;53.114;18.040;2023-04-24T01:29:20;14.10;99.90
19168;DHT22;9716;53.114;18.040;2023-04-24T01:31:49;14.10;99.90
19168;DHT22;9716;53.114;18.040;2023-04-24T01:34:17;14.10;99.90
19168;DHT22;9716;53.114;18.040;2023-04-24T01:36:46;14.10;99.90
19168;DHT22;9716;53.114;18.040;2023-04-24T01:39:15;14.10;99.90
19168;DHT22;9716;53.114;18.040;2023-04-24T01:41:45;14.10;99.90
19168;DHT22;9716;53.114;18.040;2023-04-24T01:44:14;14.00;99.90
19168;DHT22;9716;53.114;18.040;2023-04-24T01:46:43;14.10;99.90
19168;DHT22;9716;53.114;18.040;2023-04-24T01:49:11;14.00;99.90
19168;DHT22;9716;53.114;18.040;2023-04-24T01:51:39;14.00;99.90
19168;DHT22;9716;53.114;18.040;2023-04-24T01:54:08;14.00;99.90
19168;DHT22;9716;53.114;18.040;2023-04-24T01:56:38;14.00;99.90
19168;DHT22;9716;53.114;18.040;2023-04-24T01:59:11;14.00;99.90
19168;DHT22;9716;53.114;18.040;2023-04-24T02:01:39;14.00;99.90
19168;DHT22;9716;53.114;18.040;2023-04-24T02:04:08;14.00;99.90
19168;DHT22;9716;53.114;18.040;2023-04-24T02:06:37;14.00;99.90
19168;DHT22;9716;53.114;18.040;2023-04-24T02:09:05;14.00;99.90
19168;DHT22;9716;53.114;18.040;2023-04-24T02:11:33;14.00;99.90
19168;DHT22;9716;53.114;18.040;2023-04-24T02:14:02;14.00;99.90
19168;DHT22;9716;53.114;18.040;2023-04-24T02:16:32;14.00;99.90
19168;DHT22;9716;53.114;18.040;2023-04-24T02:19:03;14.00;99.90
19168;DHT22;9716;53.114;18.040;2023-04-24T02:21:31;14.00;99.90
19168;DHT22;9716;53.114;18.040;2023-04-24T02:24:00;14.00;99.90
19168;DHT22;9716;53.114;18.040;2023-04-24T02:26:28;14.00;99.90
19168;DHT22;9716;53.114;18.040;2023-04-24T02:28:58;14.00;99.90
19168;DHT22;9716;53.114;18.040;2023-04-24T02:31:27;14.00;99.90
19168;DHT22;9716;53.114;18.040;2023-04-24T02:33:56;13.90;99.90
19168;DHT22;9716;53.114;18.040;2023-04-24T02:36:25;13.90;99.90
19168;DHT22;9716;53.114;18.040;2023-04-24T02:38:53;13.90;99.90
19168;DHT22;9716;53.114;18.040;2023-04-24T02:41:22;13.90;99.90
19168;DHT22;9716;53.114;18.040;2023-04-24T02:43:50;13.90;99.90
19168;DHT22;9716;53.114;18.040;2023-04-24T02:46:18;13.90;99.90
19168;DHT22;9716;53.114;18.040;2023-04-24T02:48:47;13.90;99.90
19168;DHT22;9716;53.114;18.040;2023-04-24T02:51:17;13.90;99.90
19168;DHT22;9716;53.114;18.040;2023-04-24T02:53:45;13.90;99.90
19168;DHT22;9716;53.114;18.040;2023-04-24T02:56:13;13.90;99.90
19168;DHT22;9716;53.114;18.040;2023-04-24T02:58:42;13.90;99.90
19168;DHT22;9716;53.114;18.040;2023-04-24T03:01:10;14.00;99.90
19168;DHT22;9716;53.114;18.040;2023-04-24T03:03:39;13.90;99.90
19168;DHT22;9716;53.114;18.040;2023-04-24T03:06:08;14.00;99.90
19168;DHT22;9716;53.114;18.040;2023-04-24T03:08:38;13.90;99.90
19168;DHT22;9716;53.114;18.040;2023-04-24T03:11:06;13.90;99.90
19168;DHT22;9716;53.114;18.040;2023-04-24T03:13:35;13.90;99.90
19168;DHT22;9716;53.114;18.040;2023-04-24T03:16:04;13.90;99.90
19168;DHT22;9716;53.114;18.040;2023-04-24T03:18:32;14.00;99.90
19168;DHT22;9716;53.114;18.040;2023-04-24T03:21:01;14.00;99.90
19168;DHT22;9716;53.114;18.040;2023-04-24T03:23:30;13.90;99.90
19168;DHT22;9716;53.114;18.040;2023-04-24T03:26:00;14.00;99.90
19168;DHT22;9716;53.114;18.040;2023-04-24T03:28:29;14.00;99.90
19168;DHT22;9716;53.114;18.040;2023-04-24T03:30:57;14.00;99.90
19168;DHT22;9716;53.114;18.040;2023-04-24T03:33:26;14.00;99.90
19168;DHT22;9716;53.114;18.040;2023-04-24T03:35:55;14.00;99.90
19168;DHT22;9716;53.114;18.040;2023-04-24T03:38:23;14.00;99.90
19168;DHT22;9716;53.114;18.040;2023-04-24T03:40:52;14.00;99.90
19168;DHT22;9716;53.114;18.040;2023-04-24T03:43:22;14.00;99.90
19168;DHT22;9716;53.114;18.040;2023-04-24T03:45:50;14.00;99.90
19168;DHT22;9716;53.114;18.040;2023-04-24T03:48:19;14.00;99.90
19168;DHT22;9716;53.114;18.040;2023-04-24T03:50:47;14.00;99.90
19168;DHT22;9716;53.114;18.040;2023-04-24T03:53:15;14.00;99.90
19168;DHT22;9716;53.114;18.040;2023-04-24T03:55:44;14.00;99.90
19168;DHT22;9716;53.114;18.040;2023-04-24T03:58:13;14.00;99.90
19168;DHT22;9716;53.114;18.040;2023-04-24T04:00:43;14.00;99.90
19168;DHT22;9716;53.114;18.040;2023-04-24T04:03:13;14.00;99.90
19168;DHT22;9716;53.114;18.040;2023-04-24T04:05:43;14.00;99.90
19168;DHT22;9716;53.114;18.040;2023-04-24T04:08:11;14.00;99.90
19168;DHT22;9716;53.114;18.040;2023-04-24T04:10:39;14.00;99.90
19168;DHT22;9716;53.114;18.040;2023-04-24T04:13:08;14.00;99.90
19168;DHT22;9716;53.114;18.040;2023-04-24T04:15:37;14.00;99.90
19168;DHT22;9716;53.114;18.040;2023-04-24T04:18:06;14.00;99.90
19168;DHT22;9716;53.114;18.040;2023-04-24T04:20:35;14.00;99.90
19168;DHT22;9716;53.114;18.040;2023-04-24T04:23:04;14.00;99.90
19168;DHT22;9716;53.114;18.040;2023-04-24T04:25:33;14.00;99.90
19168;DHT22;9716;53.114;18.040;2023-04-24T04:28:01;14.00;99.90
19168;DHT22;9716;53.114;18.040;2023-04-24T04:30:30;14.00;99.90
19168;DHT22;9716;53.114;18.040;2023-04-24T04:32:59;14.10;99.90
19168;DHT22;9716;53.114;18.040;2023-04-24T04:35:29;14.10;99.90
19168;DHT22;9716;53.114;18.040;2023-04-24T04:37:58;14.10;99.90
19168;DHT22;9716;53.114;18.040;2023-04-24T04:40:27;14.10;99.90
19168;DHT22;9716;53.114;18.040;2023-04-24T04:42:57;14.10;99.90
19168;DHT22;9716;53.114;18.040;2023-04-24T04:45:25;14.10;99.90
19168;DHT22;9716;53.114;18.040;2023-04-24T04:47:54;14.10;99.90
19168;DHT22;9716;53.114;18.040;2023-04-24T04:50:24;14.10;99.90
19168;DHT22;9716;53.114;18.040;2023-04-24T04:52:53;14.20;99.90
19168;DHT22;9716;53.114;18.040;2023-04-24T04:55:22;14.20;99.90
19168;DHT22;9716;53.114;18.040;2023-04-24T04:57:51;14.20;99.90
19168;DHT22;9716;53.114;18.040;2023-04-24T05:00:19;14.30;99.90
19168;DHT22;9716;53.114;18.040;2023-04-24T05:02:48;14.30;99.90
19168;DHT22;9716;53.114;18.040;2023-04-24T05:05:17;14.30;99.90
19168;DHT22;9716;53.114;18.040;2023-04-24T05:07:45;14.40;99.90
19168;DHT22;9716;53.114;18.040;2023-04-24T05:10:15;14.60;99.90
19168;DHT22;9716;53.114;18.040;2023-04-24T05:12:43;14.80;99.90
19168;DHT22;9716;53.114;18.040;2023-04-24T05:15:12;15.00;99.90
19168;DHT22;9716;53.114;18.040;2023-04-24T05:17:41;15.10;99.90
19168;DHT22;9716;53.114;18.040;2023-04-24T05:20:09;15.10;99.90
19168;DHT22;9716;53.114;18.040;2023-04-24T05:22:38;15.20;99.90
19168;DHT22;9716;53.114;18.040;2023-04-24T05:25:07;15.20;99.90
19168;DHT22;9716;53.114;18.040;2023-04-24T05:27:37;15.20;99.90
19168;DHT22;9716;53.114;18.040;2023-04-24T05:30:07;15.30;99.90
19168;DHT22;9716;53.114;18.040;2023-04-24T05:32:36;15.30;99.90
19168;DHT22;9716;53.114;18.040;2023-04-24T05:35:05;15.30;99.90
19168;DHT22;9716;53.114;18.040;2023-04-24T05:37:34;15.30;99.90
19168;DHT22;9716;53.114;18.040;2023-04-24T05:40:04;15.40;99.90
19168;DHT22;9716;53.114;18.040;2023-04-24T05:42:32;15.70;99.90
19168;DHT22;9716;53.114;18.040;2023-04-24T05:45:03;16.10;99.90
19168;DHT22;9716;53.114;18.040;2023-04-24T05:47:31;16.70;99.90
19168;DHT22;9716;53.114;18.040;2023-04-24T05:50:00;17.20;99.90
19168;DHT22;9716;53.114;18.040;2023-04-24T05:52:28;17.70;99.90
19168;DHT22;9716;53.114;18.040;2023-04-24T05:54:57;17.90;99.90
19168;DHT22;9716;53.114;18.040;2023-04-24T05:57:26;17.90;99.90
19168;DHT22;9716;53.114;18.040;2023-04-24T05:59:54;18.00;99.90
19168;DHT22;9716;53.114;18.040;2023-04-24T06:02:24;18.00;99.90
19168;DHT22;9716;53.114;18.040;2023-04-24T06:04:53;18.00;99.90
19168;DHT22;9716;53.114;18.040;2023-04-24T06:07:22;17.90;99.90
19168;DHT22;9716;53.114;18.040;2023-04-24T06:09:51;17.80;99.90
19168;DHT22;9716;53.114;18.040;2023-04-24T06:12:19;17.70;99.90
19168;DHT22;9716;53.114;18.040;2023-04-24T06:14:48;17.60;99.90
19168;DHT22;9716;53.114;18.040;2023-04-24T06:17:16;17.50;99.90
19168;DHT22;9716;53.114;18.040;2023-04-24T06:19:46;17.70;99.90
19168;DHT22;9716;53.114;18.040;2023-04-24T06:22:15;17.80;99.90
19168;DHT22;9716;53.114;18.040;2023-04-24T06:24:44;17.90;99.90
19168;DHT22;9716;53.114;18.040;2023-04-24T06:27:12;18.00;99.90
19168;DHT22;9716;53.114;18.040;2023-04-24T06:29:42;18.20;99.90
19168;DHT22;9716;53.114;18.040;2023-04-24T06:32:10;18.30;99.90
19168;DHT22;9716;53.114;18.040;2023-04-24T06:34:39;18.60;99.90
19168;DHT22;9716;53.114;18.040;2023-04-24T06:37:10;18.80;99.90
19168;DHT22;9716;53.114;18.040;2023-04-24T06:39:39;19.10;99.90
19168;DHT22;9716;53.114;18.040;2023-04-24T06:42:08;19.20;99.90
19168;DHT22;9716;53.114;18.040;2023-04-24T06:44:36;19.20;99.90
19168;DHT22;9716;53.114;18.040;2023-04-24T06:47:08;19.20;99.90
19168;DHT22;9716;53.114;18.040;2023-04-24T06:49:37;19.10;99.90
19168;DHT22;9716;53.114;18.040;2023-04-24T06:52:06;19.00;99.90
19168;DHT22;9716;53.114;18.040;2023-04-24T06:54:36;19.00;99.90
19168;DHT22;9716;53.114;18.040;2023-04-24T06:57:04;18.90;99.90
19168;DHT22;9716;53.114;18.040;2023-04-24T06:59:33;18.90;99.90
19168;DHT22;9716;53.114;18.040;2023-04-24T07:02:01;18.90;99.90
19168;DHT22;9716;53.114;18.040;2023-04-24T07:04:30;18.80;99.90
19168;DHT22;9716;53.114;18.040;2023-04-24T07:06:59;18.80;99.90
19168;DHT22;9716;53.114;18.040;2023-04-24T07:09:28;18.90;99.90
19168;DHT22;9716;53.114;18.040;2023-04-24T07:11:58;19.10;99.90
19168;DHT22;9716;53.114;18.040;2023-04-24T07:14:26;19.20;99.90
19168;DHT22;9716;53.114;18.040;2023-04-24T07:16:55;19.40;99.90
19168;DHT22;9716;53.114;18.040;2023-04-24T07:19:24;19.60;99.90
19168;DHT22;9716;53.114;18.040;2023-04-24T07:21:52;19.60;99.90
19168;DHT22;9716;53.114;18.040;2023-04-24T07:24:22;19.60;99.90
19168;DHT22;9716;53.114;18.040;2023-04-24T07:26:54;19.70;99.90
19168;DHT22;9716;53.114;18.040;2023-04-24T07:29:25;19.80;99.90
19168;DHT22;9716;53.114;18.040;2023-04-24T07:31:54;19.90;99.90
19168;DHT22;9716;53.114;18.040;2023-04-24T07:34:24;19.90;99.90
19168;DHT22;9716;53.114;18.040;2023-04-24T07:36:52;19.90;99.90
19168;DHT22;9716;53.114;18.040;2023-04-24T07:39:21;19.80;99.90
19168;DHT22;9716;53.114;18.040;2023-04-24T07:41:49;19.70;99.90
19168;DHT22;9716;53.114;18.040;2023-04-24T07:44:18;19.70;99.90
19168;DHT22;9716;53.114;18.040;2023-04-24T07:46:48;19.60;99.90
19168;DHT22;9716;53.114;18.040;2023-04-24T07:49:21;19.60;99.90
19168;DHT22;9716;53.114;18.040;2023-04-24T07:51:51;19.50;99.90
19168;DHT22;9716;53.114;18.040;2023-04-24T07:54:20;19.50;99.90
19168;DHT22;9716;53.114;18.040;2023-04-24T07:56:49;19.60;99.90
19168;DHT22;9716;53.114;18.040;2023-04-24T07:59:18;19.60;99.90
19168;DHT22;9716;53.114;18.040;2023-04-24T08:01:48;19.70;99.90
19168;DHT22;9716;53.114;18.040;2023-04-24T08:04:17;19.80;99.90
19168;DHT22;9716;53.114;18.040;2023-04-24T08:06:47;20.00;99.90
19168;DHT22;9716;53.114;18.040;2023-04-24T08:09:15;20.00;99.90
19168;DHT22;9716;53.114;18.040;2023-04-24T08:11:44;20.10;99.90
19168;DHT22;9716;53.114;18.040;2023-04-24T08:14:13;20.20;99.90
19168;DHT22;9716;53.114;18.040;2023-04-24T08:16:42;20.30;99.90
19168;DHT22;9716;53.114;18.040;2023-04-24T08:19:12;20.40;99.90
19168;DHT22;9716;53.114;18.040;2023-04-24T08:21:40;20.60;99.90
19168;DHT22;9716;53.114;18.040;2023-04-24T08:24:09;20.80;99.90
19168;DHT22;9716;53.114;18.040;2023-04-24T08:26:37;21.00;99.90
19168;DHT22;9716;53.114;18.040;2023-04-24T08:29:06;21.20;99.90
19168;DHT22;9716;53.114;18.040;2023-04-24T08:31:34;21.30;99.90
19168;DHT22;9716;53.114;18.040;2023-04-24T08:34:03;21.40;99.90
19168;DHT22;9716;53.114;18.040;2023-04-24T08:36:33;21.40;99.90
19168;DHT22;9716;53.114;18.040;2023-04-24T08:39:13;21.40;99.90
19168;DHT22;9716;53.114;18.040;2023-04-24T08:41:42;21.50;99.90
19168;DHT22;9716;53.114;18.040;2023-04-24T08:44:12;21.40;99.90
19168;DHT22;9716;53.114;18.040;2023-04-24T08:46:43;21.40;99.90
19168;DHT22;9716;53.114;18.040;2023-04-24T08:49:13;21.30;99.90
19168;DHT22;9716;53.114;18.040;2023-04-24T08:51:44;21.30;99.90
19168;DHT22;9716;53.114;18.040;2023-04-24T08:54:14;21.10;99.90
19168;DHT22;9716;53.114;18.040;2023-04-24T08:56:44;21.10;99.90
19168;DHT22;9716;53.114;18.040;2023-04-24T08:59:13;20.90;99.90
19168;DHT22;9716;53.114;18.040;2023-04-24T09:01:43;20.90;99.90
19168;DHT22;9716;53.114;18.040;2023-04-24T09:04:14;20.80;99.90
19168;DHT22;9716;53.114;18.040;2023-04-24T09:06:47;20.70;99.90
19168;DHT22;9716;53.114;18.040;2023-04-24T09:09:17;20.60;99.90
19168;DHT22;9716;53.114;18.040;2023-04-24T09:11:46;20.60;99.90
19168;DHT22;9716;53.114;18.040;2023-04-24T09:14:15;20.50;99.90
19168;DHT22;9716;53.114;18.040;2023-04-24T09:16:45;20.40;99.90
19168;DHT22;9716;53.114;18.040;2023-04-24T09:19:14;20.30;99.90
19168;DHT22;9716;53.114;18.040;2023-04-24T09:21:46;20.10;99.90
19168;DHT22;9716;53.114;18.040;2023-04-24T09:24:16;20.00;99.90
19168;DHT22;9716;53.114;18.040;2023-04-24T09:26:45;19.90;99.90
19168;DHT22;9716;53.114;18.040;2023-04-24T09:29:15;19.80;99.90
19168;DHT22;9716;53.114;18.040;2023-04-24T09:31:45;19.60;99.90
19168;DHT22;9716;53.114;18.040;2023-04-24T09:34:14;19.50;99.90
19168;DHT22;9716;53.114;18.040;2023-04-24T09:36:43;19.40;99.90
19168;DHT22;9716;53.114;18.040;2023-04-24T09:39:15;19.50;99.90
19168;DHT22;9716;53.114;18.040;2023-04-24T09:41:45;19.50;99.90
19168;DHT22;9716;53.114;18.040;2023-04-24T09:44:15;19.50;99.90
19168;DHT22;9716;53.114;18.040;2023-04-24T09:46:46;19.70;99.90
19168;DHT22;9716;53.114;18.040;2023-04-24T09:49:22;19.70;99.90
19168;DHT22;9716;53.114;18.040;2023-04-24T09:52:02;19.90;99.90
19168;DHT22;9716;53.114;18.040;2023-04-24T09:54:33;20.20;99.90
19168;DHT22;9716;53.114;18.040;2023-04-24T09:57:04;20.70;99.90
19168;DHT22;9716;53.114;18.040;2023-04-24T09:59:32;21.00;99.90
19168;DHT22;9716;53.114;18.040;2023-04-24T10:02:03;21.40;99.90
19168;DHT22;9716;53.114;18.040;2023-04-24T10:04:54;21.70;99.40
19168;DHT22;9716;53.114;18.040;2023-04-24T10:07:25;22.10;98.70
19168;DHT22;9716;53.114;18.040;2023-04-24T10:09:56;22.40;98.00
19168;DHT22;9716;53.114;18.040;2023-04-24T10:12:26;22.60;97.40
19168;DHT22;9716;53.114;18.040;2023-04-24T10:14:56;22.70;96.90
19168;DHT22;9716;53.114;18.040;2023-04-24T10:17:26;22.80;96.30
19168;DHT22;9716;53.114;18.040;2023-04-24T10:19:56;22.80;96.00
19168;DHT22;9716;53.114;18.040;2023-04-24T10:22:27;22.80;95.80
19168;DHT22;9716;53.114;18.040;2023-04-24T10:24:59;22.70;95.70
19168;DHT22;9716;53.114;18.040;2023-04-24T10:27:28;22.60;95.60
19168;DHT22;9716;53.114;18.040;2023-04-24T10:29:58;22.50;95.60
19168;DHT22;9716;53.114;18.040;2023-04-24T10:32:28;22.50;95.60
19168;DHT22;9716;53.114;18.040;2023-04-24T10:34:57;22.50;95.50
19168;DHT22;9716;53.114;18.040;2023-04-24T10:37:26;22.70;95.20
19168;DHT22;9716;53.114;18.040;2023-04-24T10:39:55;22.80;94.90
19168;DHT22;9716;53.114;18.040;2023-04-24T10:42:27;23.10;94.60
19168;DHT22;9716;53.114;18.040;2023-04-24T10:44:56;23.30;94.10
19168;DHT22;9716;53.114;18.040;2023-04-24T10:47:25;23.40;93.70
19168;DHT22;9716;53.114;18.040;2023-04-24T10:49:54;23.60;93.40
19168;DHT22;9716;53.114;18.040;2023-04-24T10:52:44;23.70;92.90
19168;DHT22;9716;53.114;18.040;2023-04-24T10:55:13;23.90;92.70
19168;DHT22;9716;53.114;18.040;2023-04-24T10:58:04;24.10;92.40
19168;DHT22;9716;53.114;18.040;2023-04-24T11:00:36;24.20;91.90
19168;DHT22;9716;53.114;18.040;2023-04-24T11:03:05;24.30;91.70
19168;DHT22;9716;53.114;18.040;2023-04-24T11:05:50;24.50;91.50
19168;DHT22;9716;53.114;18.040;2023-04-24T11:08:24;24.60;91.10
19168;DHT22;9716;53.114;18.040;2023-04-24T11:11:11;24.70;91.00
19168;DHT22;9716;53.114;18.040;2023-04-24T11:14:06;24.70;90.80
19168;DHT22;9716;53.114;18.040;2023-04-24T11:16:40;24.60;90.70
19168;DHT22;9716;53.114;18.040;2023-04-24T11:19:18;24.40;90.90
19168;DHT22;9716;53.114;18.040;2023-04-24T11:21:49;24.40;91.10
19168;DHT22;9716;53.114;18.040;2023-04-24T11:24:27;24.30;91.20
19168;DHT22;9716;53.114;18.040;2023-04-24T11:26:58;24.30;91.20
19168;DHT22;9716;53.114;18.040;2023-04-24T11:29:41;24.30;91.20
19168;DHT22;9716;53.114;18.040;2023-04-24T11:32:18;24.20;91.20
19168;DHT22;9716;53.114;18.040;2023-04-24T11:34:48;24.30;91.00
19168;DHT22;9716;53.114;18.040;2023-04-24T11:37:17;24.20;91.10
19168;DHT22;9716;53.114;18.040;2023-04-24T11:39:45;24.30;91.10
19168;DHT22;9716;53.114;18.040;2023-04-24T11:42:15;24.40;90.90
19168;DHT22;9716;53.114;18.040;2023-04-24T11:44:46;24.40;90.80
19168;DHT22;9716;53.114;18.040;2023-04-24T11:47:15;24.50;90.80
19168;DHT22;9716;53.114;18.040;2023-04-24T11:49:43;24.40;90.70
19168;DHT22;9716;53.114;18.040;2023-04-24T11:52:15;24.40;90.70
19168;DHT22;9716;53.114;18.040;2023-04-24T11:54:48;24.30;90.80
19168;DHT22;9716;53.114;18.040;2023-04-24T11:57:19;24.20;90.80
19168;DHT22;9716;53.114;18.040;2023-04-24T11:59:50;24.10;90.70
19168;DHT22;9716;53.114;18.040;2023-04-24T12:02:22;24.10;90.70
19168;DHT22;9716;53.114;18.040;2023-04-24T12:04:52;24.10;90.70
19168;DHT22;9716;53.114;18.040;2023-04-24T12:07:22;24.20;90.60
19168;DHT22;9716;53.114;18.040;2023-04-24T12:09:56;24.20;90.30
19168;DHT22;9716;53.114;18.040;2023-04-24T12:12:28;24.20;90.00
19168;DHT22;9716;53.114;18.040;2023-04-24T12:14:58;24.10;89.80
19168;DHT22;9716;53.114;18.040;2023-04-24T12:17:29;24.00;89.80
19168;DHT22;9716;53.114;18.040;2023-04-24T12:19:59;23.90;90.00
19168;DHT22;9716;53.114;18.040;2023-04-24T12:22:43;23.80;90.00
19168;DHT22;9716;53.114;18.040;2023-04-24T12:25:13;23.70;90.50
19168;DHT22;9716;53.114;18.040;2023-04-24T12:27:42;23.60;90.30
19168;DHT22;9716;53.114;18.040;2023-04-24T12:30:14;23.50;90.40
19168;DHT22;9716;53.114;18.040;2023-04-24T12:32:43;23.50;90.50
19168;DHT22;9716;53.114;18.040;2023-04-24T12:35:13;23.50;90.40
19168;DHT22;9716;53.114;18.040;2023-04-24T12:37:43;23.50;90.20
19168;DHT22;9716;53.114;18.040;2023-04-24T12:40:14;23.50;89.40
19168;DHT22;9716;53.114;18.040;2023-04-24T12:42:44;23.50;88.10
19168;DHT22;9716;53.114;18.040;2023-04-24T12:45:15;23.50;87.70
19168;DHT22;9716;53.114;18.040;2023-04-24T12:47:45;23.40;88.20
19168;DHT22;9716;53.114;18.040;2023-04-24T12:50:15;23.30;87.70
19168;DHT22;9716;53.114;18.040;2023-04-24T12:52:45;23.20;87.90
19168;DHT22;9716;53.114;18.040;2023-04-24T12:55:13;23.20;88.00
19168;DHT22;9716;53.114;18.040;2023-04-24T12:57:41;23.20;88.10
19168;DHT22;9716;53.114;18.040;2023-04-24T13:00:10;23.20;88.40
19168;DHT22;9716;53.114;18.040;2023-04-24T13:02:40;23.20;87.90
19168;DHT22;9716;53.114;18.040;2023-04-24T13:05:09;23.20;88.50
19168;DHT22;9716;53.114;18.040;2023-04-24T13:07:38;23.20;87.20
19168;DHT22;9716;53.114;18.040;2023-04-24T13:10:08;23.20;87.30
19168;DHT22;9716;53.114;18.040;2023-04-24T13:12:37;23.20;87.60
19168;DHT22;9716;53.114;18.040;2023-04-24T13:15:06;23.20;87.60
19168;DHT22;9716;53.114;18.040;2023-04-24T13:17:35;23.20;87.40
19168;DHT22;9716;53.114;18.040;2023-04-24T13:20:06;23.20;86.70
19168;DHT22;9716;53.114;18.040;2023-04-24T13:22:36;23.10;86.40
19168;DHT22;9716;53.114;18.040;2023-04-24T13:25:05;23.10;86.90
19168;DHT22;9716;53.114;18.040;2023-04-24T13:27:34;23.00;87.40
19168;DHT22;9716;53.114;18.040;2023-04-24T13:30:03;23.00;88.00
19168;DHT22;9716;53.114;18.040;2023-04-24T13:32:32;23.00;88.40
19168;DHT22;9716;53.114;18.040;2023-04-24T13:35:03;23.00;88.50
19168;DHT22;9716;53.114;18.040;2023-04-24T13:37:33;23.00;89.20
19168;DHT22;9716;53.114;18.040;2023-04-24T13:40:02;23.00;89.60
19168;DHT22;9716;53.114;18.040;2023-04-24T13:42:33;23.10;89.70
19168;DHT22;9716;53.114;18.040;2023-04-24T13:45:02;23.00;89.90
19168;DHT22;9716;53.114;18.040;2023-04-24T13:47:51;23.00;90.10
19168;DHT22;9716;53.114;18.040;2023-04-24T13:50:21;22.90;90.30
19168;DHT22;9716;53.114;18.040;2023-04-24T13:52:51;22.70;90.50
19168;DHT22;9716;53.114;18.040;2023-04-24T13:55:20;22.60;90.70
19168;DHT22;9716;53.114;18.040;2023-04-24T13:57:49;22.50;90.90
19168;DHT22;9716;53.114;18.040;2023-04-24T14:00:19;22.30;91.10
19168;DHT22;9716;53.114;18.040;2023-04-24T14:02:48;22.20;91.20
19168;DHT22;9716;53.114;18.040;2023-04-24T14:05:17;22.10;91.30
19168;DHT22;9716;53.114;18.040;2023-04-24T14:07:46;22.00;91.40
19168;DHT22;9716;53.114;18.040;2023-04-24T14:10:16;22.00;91.50
19168;DHT22;9716;53.114;18.040;2023-04-24T14:12:44;21.90;91.40
19168;DHT22;9716;53.114;18.040;2023-04-24T14:15:13;21.90;91.60
19168;DHT22;9716;53.114;18.040;2023-04-24T14:17:42;21.80;91.60
19168;DHT22;9716;53.114;18.040;2023-04-24T14:20:13;21.90;91.70
19168;DHT22;9716;53.114;18.040;2023-04-24T14:22:41;21.90;91.70
19168;DHT22;9716;53.114;18.040;2023-04-24T14:25:10;21.90;91.70
19168;DHT22;9716;53.114;18.040;2023-04-24T14:27:40;21.90;91.80
19168;DHT22;9716;53.114;18.040;2023-04-24T14:30:10;21.90;92.00
19168;DHT22;9716;53.114;18.040;2023-04-24T14:32:39;21.90;92.10
19168;DHT22;9716;53.114;18.040;2023-04-24T14:35:08;21.90;92.20
19168;DHT22;9716;53.114;18.040;2023-04-24T14:37:37;21.80;92.20
19168;DHT22;9716;53.114;18.040;2023-04-24T14:40:08;21.90;92.30
19168;DHT22;9716;53.114;18.040;2023-04-24T14:42:59;21.90;92.30
19168;DHT22;9716;53.114;18.040;2023-04-24T14:45:27;22.00;92.30
19168;DHT22;9716;53.114;18.040;2023-04-24T14:47:57;22.00;92.20
19168;DHT22;9716;53.114;18.040;2023-04-24T14:50:25;22.00;92.20
19168;DHT22;9716;53.114;18.040;2023-04-24T14:52:57;22.00;92.10
19168;DHT22;9716;53.114;18.040;2023-04-24T14:55:25;21.90;92.10
19168;DHT22;9716;53.114;18.040;2023-04-24T14:57:54;21.80;92.10
19168;DHT22;9716;53.114;18.040;2023-04-24T15:00:24;21.60;92.10
19168;DHT22;9716;53.114;18.040;2023-04-24T15:02:53;21.60;92.00
19168;DHT22;9716;53.114;18.040;2023-04-24T15:05:22;21.50;91.90
19168;DHT22;9716;53.114;18.040;2023-04-24T15:07:53;21.40;92.00
19168;DHT22;9716;53.114;18.040;2023-04-24T15:10:21;21.30;92.60
19168;DHT22;9716;53.114;18.040;2023-04-24T15:12:51;21.30;92.40
19168;DHT22;9716;53.114;18.040;2023-04-24T15:15:19;21.20;92.40
19168;DHT22;9716;53.114;18.040;2023-04-24T15:17:49;21.30;92.60
19168;DHT22;9716;53.114;18.040;2023-04-24T15:20:18;21.40;92.80
19168;DHT22;9716;53.114;18.040;2023-04-24T15:22:46;21.50;92.80
19168;DHT22;9716;53.114;18.040;2023-04-24T15:25:15;21.70;92.90
19168;DHT22;9716;53.114;18.040;2023-04-24T15:27:45;21.80;92.80
19168;DHT22;9716;53.114;18.040;2023-04-24T15:30:14;22.00;92.70
19168;DHT22;9716;53.114;18.040;2023-04-24T15:32:43;22.10;92.50
19168;DHT22;9716;53.114;18.040;2023-04-24T15:35:12;22.30;92.40
19168;DHT22;9716;53.114;18.040;2023-04-24T15:37:41;22.40;92.20
19168;DHT22;9716;53.114;18.040;2023-04-24T15:40:11;22.60;92.00
19168;DHT22;9716;53.114;18.040;2023-04-24T15:42:41;22.60;91.90
19168;DHT22;9716;53.114;18.040;2023-04-24T15:45:10;22.70;91.80
19168;DHT22;9716;53.114;18.040;2023-04-24T15:47:40;22.70;91.60